createdAt,value
2022-07-28T00:00:23.914Z,100097.98
2022-07-28T00:05:42.068Z,100093.55
2022-07-28T00:10:45.488Z,100094.02
2022-07-28T00:15:48.917Z,100090.11
2022-07-28T00:20:52.205Z,100087.35
2022-07-28T00:25:55.722Z,100088.86
2022-07-28T00:30:59.200Z,100090.55
2022-07-28T00:36:11.895Z,100097.81
2022-07-28T00:41:17.020Z,100101.86
2022-07-28T00:46:22.317Z,100106.05
2022-07-28T00:51:28.361Z,100107.53
2022-07-28T00:56:32.488Z,100111.26
2022-07-28T01:01:35.836Z,100115.44
2022-07-28T01:07:24.571Z,100108.84
2022-07-28T01:12:39.554Z,100107.61
2022-07-28T01:17:52.493Z,100105.89
2022-07-28T01:23:14.850Z,100101.33
2022-07-28T01:28:59.547Z,100100.36
2022-07-28T01:34:07.241Z,100099.62
2022-07-28T01:39:12.450Z,100100.10
2022-07-28T01:44:22.261Z,100093.00
2022-07-28T01:49:31.054Z,100085.19
2022-07-28T01:54:38.098Z,100087.88
2022-07-28T01:59:43.083Z,100084.73
2022-07-28T02:04:48.643Z,100088.93
2022-07-28T02:09:54.029Z,100085.64
2022-07-28T02:15:00.095Z,100086.04
2022-07-28T02:20:06.018Z,100082.89
2022-07-28T02:25:10.356Z,100090.33
2022-07-28T02:30:42.294Z,100095.70
2022-07-28T02:35:50.752Z,100094.65
2022-07-28T02:40:57.963Z,100097.41
2022-07-28T02:46:06.078Z,100097.63
2022-07-28T02:51:14.423Z,100097.67
2022-07-28T02:56:18.668Z,100097.86
2022-07-28T03:01:23.319Z,100103.52
2022-07-28T03:06:28.879Z,100108.95
2022-07-28T03:11:32.578Z,100108.45
2022-07-28T03:16:35.958Z,100102.71
2022-07-28T03:21:41.763Z,100107.58
2022-07-28T03:26:53.881Z,100113.44
2022-07-28T03:31:59.863Z,100118.89
2022-07-28T03:37:12.376Z,100117.63
2022-07-28T03:42:18.791Z,100120.05
2022-07-28T03:47:24.119Z,100118.58
2022-07-28T03:52:27.530Z,100116.07
2022-07-28T03:57:30.945Z,100126.05
2022-07-28T04:02:35.100Z,100125.11
2022-07-28T04:07:38.693Z,100124.79
2022-07-28T04:12:46.304Z,100122.86
2022-07-28T04:17:50.426Z,100127.05
2022-07-28T04:22:54.819Z,100136.84
2022-07-28T04:27:58.184Z,100136.02
2022-07-28T04:33:01.594Z,100136.27
2022-07-28T04:38:05.030Z,100136.02
2022-07-28T04:43:10.589Z,100131.27
2022-07-28T04:48:14.701Z,100132.52
2022-07-28T04:53:20.887Z,100134.07
2022-07-28T04:58:25.214Z,100134.30
2022-07-28T05:03:32.742Z,100144.70
2022-07-28T05:08:39.309Z,100146.30
2022-07-28T05:13:42.574Z,100145.21
2022-07-28T05:18:45.830Z,100147.84
2022-07-28T05:23:49.245Z,100161.67
2022-07-28T05:28:52.661Z,100167.02
2022-07-28T05:33:56.176Z,100174.19
2022-07-28T05:39:00.302Z,100170.30
2022-07-28T05:44:03.717Z,100175.58
2022-07-28T05:49:07.158Z,100172.80
2022-07-28T05:54:10.706Z,100179.36
2022-07-28T05:59:15.287Z,100188.42
2022-07-28T06:04:28.167Z,100191.33
2022-07-28T06:09:32.250Z,100201.15
2022-07-28T06:14:35.663Z,100202.95
2022-07-28T06:19:39.074Z,100207.58
2022-07-28T06:24:42.694Z,100207.98
2022-07-28T06:29:45.900Z,100213.59
2022-07-28T06:34:49.212Z,100214.95
2022-07-28T06:39:52.626Z,100224.80
2022-07-28T06:44:59.259Z,100226.63
2022-07-28T06:50:03.975Z,100226.71
2022-07-28T06:55:07.882Z,100235.05
2022-07-28T07:00:14.534Z,100242.64
2022-07-28T07:05:17.883Z,100243.35
2022-07-28T07:10:21.500Z,100247.54
2022-07-28T07:15:24.710Z,100248.92
2022-07-28T07:20:29.044Z,100254.09
2022-07-28T07:25:32.457Z,100256.80
2022-07-28T07:30:35.775Z,100263.75
2022-07-28T07:35:39.181Z,100260.66
2022-07-28T07:40:42.593Z,100262.77
2022-07-28T07:45:46.312Z,100266.43
2022-07-28T07:50:53.780Z,100266.49
2022-07-28T07:55:58.156Z,100274.52
2022-07-28T08:02:39.671Z,100281.36
2022-07-28T08:07:43.495Z,100288.25
2022-07-28T08:12:46.906Z,100290.17
2022-07-28T08:17:50.320Z,100297.55
2022-07-28T08:22:55.939Z,100300.22
2022-07-28T08:27:59.706Z,100303.23
2022-07-28T08:33:03.325Z,100299.86
2022-07-28T08:38:06.736Z,100302.33
2022-07-28T08:43:23.875Z,100305.03
2022-07-28T08:48:37.844Z,100305.74
2022-07-28T08:53:43.148Z,100306.88
2022-07-28T08:58:46.411Z,100310.90
2022-07-28T09:03:50.124Z,100319.30
2022-07-28T09:08:53.506Z,100319.65
2022-07-28T09:13:56.947Z,100320.51
2022-07-28T09:19:00.358Z,100327.34
2022-07-28T09:24:03.829Z,100338.53
2022-07-28T09:29:08.683Z,100338.13
2022-07-28T09:34:12.359Z,100335.71
2022-07-28T09:39:32.956Z,100334.08
2022-07-28T09:44:36.369Z,100337.16
2022-07-28T09:49:43.072Z,100335.22
2022-07-28T09:55:00.910Z,100334.69
2022-07-28T10:20:37.341Z,100324.85
2022-07-28T10:25:43.574Z,100334.00
2022-07-28T10:30:50.239Z,100335.77
2022-07-28T10:35:55.649Z,100336.03
2022-07-28T10:41:03.349Z,100334.66
2022-07-28T10:46:08.857Z,100332.52
2022-07-28T10:51:14.895Z,100332.63
2022-07-28T10:56:23.440Z,100343.09
2022-07-28T11:01:53.094Z,100344.57
2022-07-28T11:07:13.380Z,100353.41
2022-07-28T11:12:17.109Z,100347.67
2022-07-28T11:17:24.508Z,100338.78
2022-07-28T11:22:37.032Z,100341.67
2022-07-28T11:27:40.145Z,100335.48
2022-07-28T11:32:55.076Z,100338.21
2022-07-28T11:38:01.546Z,100347.16
2022-07-28T11:43:35.525Z,100348.14
2022-07-28T11:48:45.203Z,100350.61
2022-07-28T11:53:53.627Z,100352.77
2022-07-28T11:59:02.520Z,100362.11
2022-07-28T12:04:15.065Z,100358.29
2022-07-28T12:09:23.552Z,100357.13
2022-07-28T12:14:30.679Z,100361.14
2022-07-28T12:19:34.036Z,100363.55
2022-07-28T12:24:45.110Z,100368.98
2022-07-28T12:30:05.325Z,100376.02
2022-07-28T12:35:09.727Z,100373.42
2022-07-28T12:40:14.479Z,100376.75
2022-07-28T12:45:17.729Z,100378.61
2022-07-28T12:50:21.517Z,100380.41
2022-07-28T12:55:32.335Z,100381.02
2022-07-28T13:00:36.707Z,100381.05
2022-07-28T13:06:00.464Z,100378.50
2022-07-28T13:11:03.772Z,100381.19
2022-07-28T13:16:17.700Z,100381.51
2022-07-28T13:21:58.496Z,100384.58
2022-07-28T13:27:04.574Z,100387.11
2022-07-28T13:32:08.430Z,100391.21
2022-07-28T13:37:13.120Z,100393.75
2022-07-28T13:42:16.482Z,100391.52
2022-07-28T13:47:19.787Z,100397.81
2022-07-28T13:52:33.159Z,100390.96
2022-07-28T13:57:38.647Z,100391.73
2022-07-28T14:02:49.062Z,100401.54
2022-07-28T14:07:52.486Z,100416.97
2022-07-28T14:12:55.797Z,100427.70
2022-07-28T14:17:59.059Z,100438.37
2022-07-28T14:23:02.828Z,100454.55
2022-07-28T14:28:06.138Z,100450.00
2022-07-28T14:33:09.452Z,100446.91
2022-07-28T14:38:51.214Z,100453.17
2022-07-28T14:43:36.652Z,100450.33
2022-07-28T14:48:41.709Z,100453.19
2022-07-28T14:53:50.049Z,100453.05
2022-07-28T14:58:55.494Z,100461.42
2022-07-28T15:03:58.807Z,100456.38
2022-07-28T15:09:02.630Z,100453.48
2022-07-28T15:14:05.939Z,100450.52
2022-07-28T15:19:09.766Z,100447.45
2022-07-28T15:24:14.368Z,100450.66
2022-07-28T15:29:19.762Z,100446.19
2022-07-28T15:34:25.125Z,100439.88
2022-07-28T15:39:30.884Z,100443.21
2022-07-28T15:44:35.227Z,100448.11
2022-07-28T15:49:40.177Z,100451.61
2022-07-28T15:54:43.697Z,100451.42
2022-07-28T15:59:51.414Z,100450.79
2022-07-28T16:04:54.719Z,100454.81
2022-07-28T16:09:58.370Z,100459.59
2022-07-28T16:15:02.262Z,100450.33
2022-07-28T16:20:10.352Z,100458.36
2022-07-28T16:25:17.994Z,100456.06
2022-07-28T16:30:21.717Z,100447.94
2022-07-28T16:35:25.024Z,100447.94
2022-07-28T16:40:30.693Z,100450.83
2022-07-28T16:45:35.850Z,100451.60
2022-07-28T16:50:39.263Z,100450.78
2022-07-28T16:55:42.979Z,100456.59
2022-07-28T17:00:46.395Z,100457.73
2022-07-28T17:05:49.805Z,100461.46
2022-07-28T17:10:53.066Z,100451.11
2022-07-28T17:15:56.788Z,100454.79
2022-07-28T17:21:00.261Z,100455.02
2022-07-28T17:31:31.552Z,100456.67
2022-07-28T17:36:39.059Z,100456.73
2022-07-28T17:41:45.852Z,100460.04
2022-07-28T17:46:50.091Z,100456.20
2022-07-28T17:51:53.805Z,100455.73
2022-07-28T17:56:57.741Z,100463.98
2022-07-28T18:02:01.116Z,100462.45
2022-07-28T18:07:05.585Z,100467.86
2022-07-28T18:12:09.608Z,100475.10
2022-07-28T18:17:12.870Z,100469.73
2022-07-28T18:22:16.231Z,100474.63
2022-07-28T18:27:20.156Z,100476.39
2022-07-28T18:32:23.501Z,100482.55
2022-07-28T18:37:26.680Z,100486.77
2022-07-28T18:42:34.289Z,100492.98
2022-07-28T18:47:46.592Z,100494.28
2022-07-28T18:52:51.558Z,100493.85
2022-07-28T18:57:54.972Z,100497.59
2022-07-28T19:02:58.367Z,100500.23
2022-07-28T19:08:01.799Z,100504.70
2022-07-28T19:13:05.620Z,100508.88
2022-07-28T19:18:15.588Z,100512.15
2022-07-28T19:23:19.923Z,100506.61
2022-07-28T19:28:24.005Z,100506.90
2022-07-28T19:33:28.388Z,100508.58
2022-07-28T19:38:31.800Z,100508.71
2022-07-28T19:43:35.622Z,100513.08
2022-07-28T19:48:38.967Z,100517.48
2022-07-28T19:53:42.769Z,100518.15
2022-07-28T19:58:50.582Z,100522.08
2022-07-28T20:04:03.042Z,100523.67
2022-07-28T20:09:08.463Z,100524.76
2022-07-28T20:14:11.818Z,100531.85
2022-07-28T20:19:15.345Z,100536.11
2022-07-28T20:24:20.131Z,100535.79
2022-07-28T20:29:23.297Z,100534.28
2022-07-28T20:34:26.650Z,100539.80
2022-07-28T20:39:44.369Z,100534.52
2022-07-28T20:44:49.249Z,100541.15
2022-07-28T20:49:52.761Z,100541.14
2022-07-28T20:54:55.973Z,100543.63
2022-07-28T20:59:59.178Z,100543.43
2022-07-28T21:05:02.489Z,100546.52
2022-07-28T21:10:07.529Z,100549.92
2022-07-28T21:15:11.361Z,100553.61
2022-07-28T21:20:14.674Z,100552.98
2022-07-28T21:25:18.291Z,100554.02
2022-07-28T21:30:28.220Z,100559.59
2022-07-28T21:35:31.774Z,100568.29
2022-07-28T21:40:35.090Z,100569.11
2022-07-28T21:45:38.458Z,100564.89
2022-07-28T21:50:41.707Z,100572.64
2022-07-28T21:55:46.657Z,100575.49
2022-07-28T22:00:49.981Z,100580.30
2022-07-28T22:05:53.481Z,100583.62
2022-07-28T22:10:57.100Z,100586.04
2022-07-28T22:16:00.443Z,100587.16
2022-07-28T22:21:04.029Z,100591.06
2022-07-28T22:26:07.240Z,100596.36
2022-07-28T22:31:10.655Z,100599.33
2022-07-28T22:36:14.473Z,100600.25
2022-07-28T22:41:17.683Z,100608.89
2022-07-28T22:46:21.014Z,100614.84
2022-07-28T22:51:24.304Z,100622.41
2022-07-28T22:56:46.152Z,100629.27
2022-07-28T23:01:49.255Z,100631.73
2022-07-28T23:06:52.569Z,100634.72
2022-07-28T23:11:56.351Z,100632.23
2022-07-28T23:17:00.113Z,100639.33
2022-07-28T23:22:03.420Z,100642.24
2022-07-28T23:27:06.736Z,100642.89
2022-07-28T23:32:13.818Z,100647.74
2022-07-28T23:37:20.115Z,100652.09
2022-07-28T23:42:23.422Z,100652.38
2022-07-28T23:47:26.632Z,100651.34
2022-07-28T23:52:30.047Z,100652.22
2022-07-28T23:57:33.561Z,100645.74
